sensor_id;sensor_type;location;lat;lon;timestamp;temperature;humidity
2639;DHT22;1329;51.384;7.122;2023-03-13T00:01:00;11.20;99.90
2639;DHT22;1329;51.384;7.122;2023-03-13T00:03:28;11.20;99.90
2639;DHT22;1329;51.384;7.122;2023-03-13T00:05:56;11.20;99.90
2639;DHT22;1329;51.384;7.122;2023-03-13T00:08:24;11.20;99.90
2639;DHT22;1329;51.384;7.122;2023-03-13T00:10:51;11.30;99.90
2639;DHT22;1329;51.384;7.122;2023-03-13T00:13:18;11.30;99.90
2639;DHT22;1329;51.384;7.122;2023-03-13T00:15:45;11.30;99.90
2639;DHT22;1329;51.384;7.122;2023-03-13T00:18:14;11.30;99.90
2639;DHT22;1329;51.384;7.122;2023-03-13T00:20:42;11.30;99.90
2639;DHT22;1329;51.384;7.122;2023-03-13T00:23:12;11.30;99.90
2639;DHT22;1329;51.384;7.122;2023-03-13T00:25:39;11.40;99.90
2639;DHT22;1329;51.384;7.122;2023-03-13T00:28:06;11.40;99.90
2639;DHT22;1329;51.384;7.122;2023-03-13T00:30:34;11.40;99.90
2639;DHT22;1329;51.384;7.122;2023-03-13T00:33:01;11.40;99.90
2639;DHT22;1329;51.384;7.122;2023-03-13T00:35:30;11.40;99.90
2639;DHT22;1329;51.384;7.122;2023-03-13T00:37:57;11.40;99.90
2639;DHT22;1329;51.384;7.122;2023-03-13T00:40:24;11.40;99.90
2639;DHT22;1329;51.384;7.122;2023-03-13T00:42:52;11.40;99.90
2639;DHT22;1329;51.384;7.122;2023-03-13T00:45:19;11.40;99.90
2639;DHT22;1329;51.384;7.122;2023-03-13T00:47:45;11.40;99.90
2639;DHT22;1329;51.384;7.122;2023-03-13T00:50:14;11.40;99.90
2639;DHT22;1329;51.384;7.122;2023-03-13T00:52:43;11.40;99.90
2639;DHT22;1329;51.384;7.122;2023-03-13T00:55:10;11.40;99.90
2639;DHT22;1329;51.384;7.122;2023-03-13T00:57:37;11.40;99.90
2639;DHT22;1329;51.384;7.122;2023-03-13T01:00:04;11.30;99.90
2639;DHT22;1329;51.384;7.122;2023-03-13T01:02:32;11.30;99.90
2639;DHT22;1329;51.384;7.122;2023-03-13T01:04:59;11.30;99.90
2639;DHT22;1329;51.384;7.122;2023-03-13T01:07:27;11.30;99.90
2639;DHT22;1329;51.384;7.122;2023-03-13T01:09:56;11.30;99.90
2639;DHT22;1329;51.384;7.122;2023-03-13T01:12:23;11.30;99.90
2639;DHT22;1329;51.384;7.122;2023-03-13T01:14:50;11.30;99.90
2639;DHT22;1329;51.384;7.122;2023-03-13T01:17:17;11.30;99.90
2639;DHT22;1329;51.384;7.122;2023-03-13T01:19:44;11.30;99.90
2639;DHT22;1329;51.384;7.122;2023-03-13T01:22:11;11.20;99.90
2639;DHT22;1329;51.384;7.122;2023-03-13T01:24:37;11.20;99.90
2639;DHT22;1329;51.384;7.122;2023-03-13T01:27:06;11.20;99.90
2639;DHT22;1329;51.384;7.122;2023-03-13T01:29:33;11.20;99.90
2639;DHT22;1329;51.384;7.122;2023-03-13T01:31:59;11.20;99.90
2639;DHT22;1329;51.384;7.122;2023-03-13T01:34:26;11.20;99.90
2639;DHT22;1329;51.384;7.122;2023-03-13T01:36:53;11.20;99.90
2639;DHT22;1329;51.384;7.122;2023-03-13T01:39:20;11.10;99.90
2639;DHT22;1329;51.384;7.122;2023-03-13T01:41:47;11.10;99.90
2639;DHT22;1329;51.384;7.122;2023-03-13T01:44:21;11.10;99.90
2639;DHT22;1329;51.384;7.122;2023-03-13T01:46:50;11.00;99.90
2639;DHT22;1329;51.384;7.122;2023-03-13T01:49:19;11.00;99.90
2639;DHT22;1329;51.384;7.122;2023-03-13T01:51:50;11.00;99.90
2639;DHT22;1329;51.384;7.122;2023-03-13T01:54:22;11.00;99.90
2639;DHT22;1329;51.384;7.122;2023-03-13T01:56:54;11.00;99.90
2639;DHT22;1329;51.384;7.122;2023-03-13T01:59:27;11.00;99.90
2639;DHT22;1329;51.384;7.122;2023-03-13T02:01:59;11.00;99.90
2639;DHT22;1329;51.384;7.122;2023-03-13T02:04:30;11.00;99.90
2639;DHT22;1329;51.384;7.122;2023-03-13T02:07:03;11.00;99.90
2639;DHT22;1329;51.384;7.122;2023-03-13T02:09:33;11.00;99.90
2639;DHT22;1329;51.384;7.122;2023-03-13T02:12:05;10.90;99.90
2639;DHT22;1329;51.384;7.122;2023-03-13T02:14:37;10.90;99.90
2639;DHT22;1329;51.384;7.122;2023-03-13T02:17:06;10.90;99.90
2639;DHT22;1329;51.384;7.122;2023-03-13T02:19:39;10.90;99.90
2639;DHT22;1329;51.384;7.122;2023-03-13T02:22:15;10.90;99.90
2639;DHT22;1329;51.384;7.122;2023-03-13T02:24:50;10.90;99.90
2639;DHT22;1329;51.384;7.122;2023-03-13T02:27:24;10.90;99.90
2639;DHT22;1329;51.384;7.122;2023-03-13T02:29:52;10.90;99.90
2639;DHT22;1329;51.384;7.122;2023-03-13T02:32:21;10.90;99.90
2639;DHT22;1329;51.384;7.122;2023-03-13T02:34:53;10.90;99.90
2639;DHT22;1329;51.384;7.122;2023-03-13T02:37:24;10.90;99.90
2639;DHT22;1329;51.384;7.122;2023-03-13T02:39:54;10.90;99.90
2639;DHT22;1329;51.384;7.122;2023-03-13T02:42:27;10.90;99.90
2639;DHT22;1329;51.384;7.122;2023-03-13T02:44:55;10.90;99.90
2639;DHT22;1329;51.384;7.122;2023-03-13T02:47:24;10.90;99.90
2639;DHT22;1329;51.384;7.122;2023-03-13T02:49:51;10.90;99.90
2639;DHT22;1329;51.384;7.122;2023-03-13T02:52:23;10.90;99.90
2639;DHT22;1329;51.384;7.122;2023-03-13T02:54:57;10.90;99.90
2639;DHT22;1329;51.384;7.122;2023-03-13T02:57:29;10.90;99.90
2639;DHT22;1329;51.384;7.122;2023-03-13T02:59:58;10.90;99.90
2639;DHT22;1329;51.384;7.122;2023-03-13T03:02:27;10.90;99.90
2639;DHT22;1329;51.384;7.122;2023-03-13T03:04:54;11.00;99.90
2639;DHT22;1329;51.384;7.122;2023-03-13T03:07:22;10.90;99.90
2639;DHT22;1329;51.384;7.122;2023-03-13T03:09:49;10.90;99.90
2639;DHT22;1329;51.384;7.122;2023-03-13T03:12:17;10.90;99.90
2639;DHT22;1329;51.384;7.122;2023-03-13T03:14:52;11.00;99.90
2639;DHT22;1329;51.384;7.122;2023-03-13T03:17:19;11.00;99.90
2639;DHT22;1329;51.384;7.122;2023-03-13T03:19:47;11.00;99.90
2639;DHT22;1329;51.384;7.122;2023-03-13T03:22:14;11.00;99.90
2639;DHT22;1329;51.384;7.122;2023-03-13T03:24:48;11.10;99.90
2639;DHT22;1329;51.384;7.122;2023-03-13T03:27:31;11.10;99.90
2639;DHT22;1329;51.384;7.122;2023-03-13T03:30:01;11.10;99.90
2639;DHT22;1329;51.384;7.122;2023-03-13T03:32:30;11.10;99.90
2639;DHT22;1329;51.384;7.122;2023-03-13T03:34:58;11.10;99.90
2639;DHT22;1329;51.384;7.122;2023-03-13T03:37:26;11.10;99.90
2639;DHT22;1329;51.384;7.122;2023-03-13T03:39:53;11.10;99.90
2639;DHT22;1329;51.384;7.122;2023-03-13T03:42:24;11.20;99.90
2639;DHT22;1329;51.384;7.122;2023-03-13T03:44:52;11.10;99.90
2639;DHT22;1329;51.384;7.122;2023-03-13T03:47:21;11.20;99.90
2639;DHT22;1329;51.384;7.122;2023-03-13T03:49:49;11.20;99.90
2639;DHT22;1329;51.384;7.122;2023-03-13T03:52:16;11.30;99.90
2639;DHT22;1329;51.384;7.122;2023-03-13T03:54:44;11.20;99.90
2639;DHT22;1329;51.384;7.122;2023-03-13T03:57:11;11.20;99.90
2639;DHT22;1329;51.384;7.122;2023-03-13T03:59:38;11.30;99.90
2639;DHT22;1329;51.384;7.122;2023-03-13T04:02:05;11.30;99.90
2639;DHT22;1329;51.384;7.122;2023-03-13T04:04:43;11.30;99.90
2639;DHT22;1329;51.384;7.122;2023-03-13T04:07:10;11.30;99.90
2639;DHT22;1329;51.384;7.122;2023-03-13T04:09:38;11.30;99.90
2639;DHT22;1329;51.384;7.122;2023-03-13T04:12:08;11.30;99.90
2639;DHT22;1329;51.384;7.122;2023-03-13T04:14:42;11.40;99.90
2639;DHT22;1329;51.384;7.122;2023-03-13T04:17:10;11.40;99.90
2639;DHT22;1329;51.384;7.122;2023-03-13T04:19:42;11.40;99.90
2639;DHT22;1329;51.384;7.122;2023-03-13T04:22:12;11.40;99.90
2639;DHT22;1329;51.384;7.122;2023-03-13T04:24:40;11.40;99.90
2639;DHT22;1329;51.384;7.122;2023-03-13T04:27:10;11.40;99.90
2639;DHT22;1329;51.384;7.122;2023-03-13T04:29:39;11.40;99.90
2639;DHT22;1329;51.384;7.122;2023-03-13T04:32:06;11.50;99.90
2639;DHT22;1329;51.384;7.122;2023-03-13T04:34:34;11.50;99.90
2639;DHT22;1329;51.384;7.122;2023-03-13T04:37:05;11.50;99.90
2639;DHT22;1329;51.384;7.122;2023-03-13T04:39:33;11.50;99.90
2639;DHT22;1329;51.384;7.122;2023-03-13T04:42:01;11.50;99.90
2639;DHT22;1329;51.384;7.122;2023-03-13T04:44:28;11.50;99.90
2639;DHT22;1329;51.384;7.122;2023-03-13T04:46:56;11.50;99.90
2639;DHT22;1329;51.384;7.122;2023-03-13T04:49:36;11.60;99.90
2639;DHT22;1329;51.384;7.122;2023-03-13T04:52:14;11.50;99.90
2639;DHT22;1329;51.384;7.122;2023-03-13T04:54:43;11.60;99.90
2639;DHT22;1329;51.384;7.122;2023-03-13T04:57:10;11.60;99.90
2639;DHT22;1329;51.384;7.122;2023-03-13T04:59:37;11.60;99.90
2639;DHT22;1329;51.384;7.122;2023-03-13T05:02:04;11.60;99.90
2639;DHT22;1329;51.384;7.122;2023-03-13T05:04:35;11.60;99.90
2639;DHT22;1329;51.384;7.122;2023-03-13T05:07:06;11.60;99.90
2639;DHT22;1329;51.384;7.122;2023-03-13T05:09:35;11.60;99.90
2639;DHT22;1329;51.384;7.122;2023-03-13T05:12:02;11.70;99.90
2639;DHT22;1329;51.384;7.122;2023-03-13T05:14:33;11.70;99.90
2639;DHT22;1329;51.384;7.122;2023-03-13T05:17:03;11.70;99.90
2639;DHT22;1329;51.384;7.122;2023-03-13T05:19:31;11.70;99.90
2639;DHT22;1329;51.384;7.122;2023-03-13T05:22:04;11.80;99.90
2639;DHT22;1329;51.384;7.122;2023-03-13T05:24:32;11.70;99.90
2639;DHT22;1329;51.384;7.122;2023-03-13T05:27:08;11.80;99.90
2639;DHT22;1329;51.384;7.122;2023-03-13T05:29:38;11.80;99.90
2639;DHT22;1329;51.384;7.122;2023-03-13T05:32:09;11.80;99.90
2639;DHT22;1329;51.384;7.122;2023-03-13T05:34:38;11.80;99.90
2639;DHT22;1329;51.384;7.122;2023-03-13T05:37:05;11.90;99.90
2639;DHT22;1329;51.384;7.122;2023-03-13T05:39:38;11.90;99.90
2639;DHT22;1329;51.384;7.122;2023-03-13T05:42:05;11.90;99.90
2639;DHT22;1329;51.384;7.122;2023-03-13T05:44:32;11.90;99.90
2639;DHT22;1329;51.384;7.122;2023-03-13T05:46:59;11.90;99.90
2639;DHT22;1329;51.384;7.122;2023-03-13T05:49:27;12.00;99.90
2639;DHT22;1329;51.384;7.122;2023-03-13T05:51:57;12.00;99.90
2639;DHT22;1329;51.384;7.122;2023-03-13T05:54:25;12.10;99.90
2639;DHT22;1329;51.384;7.122;2023-03-13T05:56:56;12.10;99.90
2639;DHT22;1329;51.384;7.122;2023-03-13T05:59:27;12.20;99.90
2639;DHT22;1329;51.384;7.122;2023-03-13T06:02:02;12.20;99.90
2639;DHT22;1329;51.384;7.122;2023-03-13T06:04:53;12.20;99.90
2639;DHT22;1329;51.384;7.122;2023-03-13T06:07:24;12.30;99.90
2639;DHT22;1329;51.384;7.122;2023-03-13T06:09:51;12.40;99.90
2639;DHT22;1329;51.384;7.122;2023-03-13T06:12:23;12.40;99.90
2639;DHT22;1329;51.384;7.122;2023-03-13T06:14:55;12.50;99.90
2639;DHT22;1329;51.384;7.122;2023-03-13T06:17:29;12.50;99.90
2639;DHT22;1329;51.384;7.122;2023-03-13T06:19:58;12.60;99.90
2639;DHT22;1329;51.384;7.122;2023-03-13T06:22:28;12.70;99.90
2639;DHT22;1329;51.384;7.122;2023-03-13T06:24:57;12.60;99.90
2639;DHT22;1329;51.384;7.122;2023-03-13T06:27:33;12.70;99.90
2639;DHT22;1329;51.384;7.122;2023-03-13T06:30:00;12.80;99.90
2639;DHT22;1329;51.384;7.122;2023-03-13T06:32:32;12.80;99.90
2639;DHT22;1329;51.384;7.122;2023-03-13T06:34:59;12.90;99.90
2639;DHT22;1329;51.384;7.122;2023-03-13T06:37:32;12.90;99.90
2639;DHT22;1329;51.384;7.122;2023-03-13T06:40:06;13.00;99.90
2639;DHT22;1329;51.384;7.122;2023-03-13T06:42:40;13.10;99.90
2639;DHT22;1329;51.384;7.122;2023-03-13T06:45:13;13.10;99.90
2639;DHT22;1329;51.384;7.122;2023-03-13T06:47:44;13.20;99.90
2639;DHT22;1329;51.384;7.122;2023-03-13T06:50:11;13.20;99.90
2639;DHT22;1329;51.384;7.122;2023-03-13T06:52:52;13.30;99.90
2639;DHT22;1329;51.384;7.122;2023-03-13T06:55:20;13.30;99.90
2639;DHT22;1329;51.384;7.122;2023-03-13T06:57:52;13.40;99.90
2639;DHT22;1329;51.384;7.122;2023-03-13T07:00:23;13.40;99.90
2639;DHT22;1329;51.384;7.122;2023-03-13T07:02:52;13.50;99.90
2639;DHT22;1329;51.384;7.122;2023-03-13T07:05:25;13.50;99.90
2639;DHT22;1329;51.384;7.122;2023-03-13T07:08:02;13.50;99.90
2639;DHT22;1329;51.384;7.122;2023-03-13T07:10:42;13.50;99.90
2639;DHT22;1329;51.384;7.122;2023-03-13T07:13:29;13.60;99.90
2639;DHT22;1329;51.384;7.122;2023-03-13T07:16:03;13.60;99.90
2639;DHT22;1329;51.384;7.122;2023-03-13T07:18:44;13.60;99.90
2639;DHT22;1329;51.384;7.122;2023-03-13T07:21:20;13.60;99.90
2639;DHT22;1329;51.384;7.122;2023-03-13T07:23:47;13.70;99.90
2639;DHT22;1329;51.384;7.122;2023-03-13T07:26:15;13.70;99.90
2639;DHT22;1329;51.384;7.122;2023-03-13T07:28:46;13.70;99.90
2639;DHT22;1329;51.384;7.122;2023-03-13T07:31:15;13.80;99.90
2639;DHT22;1329;51.384;7.122;2023-03-13T07:33:59;13.80;99.90
2639;DHT22;1329;51.384;7.122;2023-03-13T07:36:34;13.80;99.90
2639;DHT22;1329;51.384;7.122;2023-03-13T07:39:17;13.90;99.90
2639;DHT22;1329;51.384;7.122;2023-03-13T07:41:44;13.90;99.90
2639;DHT22;1329;51.384;7.122;2023-03-13T07:44:17;13.90;99.90
2639;DHT22;1329;51.384;7.122;2023-03-13T07:47:00;14.00;99.90
2639;DHT22;1329;51.384;7.122;2023-03-13T07:49:37;14.10;99.90
2639;DHT22;1329;51.384;7.122;2023-03-13T07:52:18;14.10;99.90
2639;DHT22;1329;51.384;7.122;2023-03-13T07:54:50;14.20;99.90
2639;DHT22;1329;51.384;7.122;2023-03-13T07:57:18;14.20;99.90
2639;DHT22;1329;51.384;7.122;2023-03-13T07:59:46;14.20;99.90
2639;DHT22;1329;51.384;7.122;2023-03-13T08:02:15;14.20;99.90
2639;DHT22;1329;51.384;7.122;2023-03-13T08:04:57;14.30;99.90
2639;DHT22;1329;51.384;7.122;2023-03-13T08:07:28;14.30;99.90
2639;DHT22;1329;51.384;7.122;2023-03-13T08:10:01;14.30;99.90
2639;DHT22;1329;51.384;7.122;2023-03-13T08:12:33;14.30;99.90
2639;DHT22;1329;51.384;7.122;2023-03-13T08:15:06;14.30;99.90
2639;DHT22;1329;51.384;7.122;2023-03-13T08:17:38;14.30;99.90
2639;DHT22;1329;51.384;7.122;2023-03-13T08:20:07;14.30;99.90
2639;DHT22;1329;51.384;7.122;2023-03-13T08:22:38;14.30;99.90
2639;DHT22;1329;51.384;7.122;2023-03-13T08:25:12;14.30;99.90
2639;DHT22;1329;51.384;7.122;2023-03-13T08:27:39;14.40;99.90
2639;DHT22;1329;51.384;7.122;2023-03-13T08:30:16;14.30;99.90
2639;DHT22;1329;51.384;7.122;2023-03-13T08:32:45;14.40;99.90
2639;DHT22;1329;51.384;7.122;2023-03-13T08:35:17;14.40;99.90
2639;DHT22;1329;51.384;7.122;2023-03-13T08:37:46;14.40;99.90
2639;DHT22;1329;51.384;7.122;2023-03-13T08:40:20;14.40;99.90
2639;DHT22;1329;51.384;7.122;2023-03-13T08:45:40;14.40;99.90
2639;DHT22;1329;51.384;7.122;2023-03-13T08:48:08;14.50;99.90
2639;DHT22;1329;51.384;7.122;2023-03-13T08:50:40;14.50;99.90
2639;DHT22;1329;51.384;7.122;2023-03-13T08:53:08;14.50;99.90
2639;DHT22;1329;51.384;7.122;2023-03-13T08:55:36;14.50;99.90
2639;DHT22;1329;51.384;7.122;2023-03-13T08:58:08;14.50;99.90
2639;DHT22;1329;51.384;7.122;2023-03-13T09:00:36;14.60;99.90
2639;DHT22;1329;51.384;7.122;2023-03-13T09:03:05;14.60;99.90
2639;DHT22;1329;51.384;7.122;2023-03-13T09:05:43;14.60;99.90
2639;DHT22;1329;51.384;7.122;2023-03-13T09:08:13;14.60;99.90
2639;DHT22;1329;51.384;7.122;2023-03-13T09:10:41;14.60;99.90
2639;DHT22;1329;51.384;7.122;2023-03-13T09:13:24;14.60;99.90
2639;DHT22;1329;51.384;7.122;2023-03-13T09:16:09;14.70;99.90
2639;DHT22;1329;51.384;7.122;2023-03-13T09:18:55;14.70;99.90
2639;DHT22;1329;51.384;7.122;2023-03-13T09:21:35;14.70;99.90
2639;DHT22;1329;51.384;7.122;2023-03-13T09:24:13;14.80;99.90
2639;DHT22;1329;51.384;7.122;2023-03-13T09:26:44;14.90;99.90
2639;DHT22;1329;51.384;7.122;2023-03-13T09:29:18;15.00;99.90
2639;DHT22;1329;51.384;7.122;2023-03-13T09:31:47;15.10;99.90
2639;DHT22;1329;51.384;7.122;2023-03-13T09:34:15;15.20;99.90
2639;DHT22;1329;51.384;7.122;2023-03-13T09:36:42;15.30;99.90
2639;DHT22;1329;51.384;7.122;2023-03-13T09:39:13;15.30;99.90
2639;DHT22;1329;51.384;7.122;2023-03-13T09:41:46;15.30;99.90
2639;DHT22;1329;51.384;7.122;2023-03-13T09:44:23;15.30;99.90
2639;DHT22;1329;51.384;7.122;2023-03-13T09:47:00;15.40;99.90
2639;DHT22;1329;51.384;7.122;2023-03-13T09:49:42;15.30;99.90
2639;DHT22;1329;51.384;7.122;2023-03-13T09:52:24;15.30;99.90
2639;DHT22;1329;51.384;7.122;2023-03-13T09:54:57;15.30;99.90
2639;DHT22;1329;51.384;7.122;2023-03-13T09:57:32;15.30;99.90
2639;DHT22;1329;51.384;7.122;2023-03-13T10:00:12;15.30;99.90
2639;DHT22;1329;51.384;7.122;2023-03-13T10:02:53;15.30;99.90
2639;DHT22;1329;51.384;7.122;2023-03-13T10:05:33;15.40;99.90
2639;DHT22;1329;51.384;7.122;2023-03-13T10:08:14;15.40;99.90
2639;DHT22;1329;51.384;7.122;2023-03-13T10:10:47;15.40;99.90
2639;DHT22;1329;51.384;7.122;2023-03-13T10:13:30;15.50;99.90
2639;DHT22;1329;51.384;7.122;2023-03-13T10:16:07;15.50;99.90
2639;DHT22;1329;51.384;7.122;2023-03-13T10:18:55;15.50;99.90
2639;DHT22;1329;51.384;7.122;2023-03-13T10:21:32;15.60;99.90
2639;DHT22;1329;51.384;7.122;2023-03-13T10:24:09;15.70;99.90
2639;DHT22;1329;51.384;7.122;2023-03-13T10:26:40;15.70;99.90
2639;DHT22;1329;51.384;7.122;2023-03-13T10:29:20;15.90;99.90
2639;DHT22;1329;51.384;7.122;2023-03-13T10:31:55;15.90;99.90
2639;DHT22;1329;51.384;7.122;2023-03-13T10:34:30;16.00;99.90
2639;DHT22;1329;51.384;7.122;2023-03-13T10:37:14;16.10;99.90
2639;DHT22;1329;51.384;7.122;2023-03-13T10:39:43;16.10;99.90
2639;DHT22;1329;51.384;7.122;2023-03-13T10:42:20;16.20;99.90
2639;DHT22;1329;51.384;7.122;2023-03-13T10:44:58;16.20;99.90
2639;DHT22;1329;51.384;7.122;2023-03-13T10:47:32;16.20;99.90
2639;DHT22;1329;51.384;7.122;2023-03-13T10:50:02;16.30;99.90
2639;DHT22;1329;51.384;7.122;2023-03-13T10:52:34;16.30;99.90
2639;DHT22;1329;51.384;7.122;2023-03-13T10:55:10;16.40;99.90
2639;DHT22;1329;51.384;7.122;2023-03-13T10:57:52;16.40;99.90
2639;DHT22;1329;51.384;7.122;2023-03-13T11:00:34;16.40;99.90
2639;DHT22;1329;51.384;7.122;2023-03-13T11:03:12;16.40;99.90
2639;DHT22;1329;51.384;7.122;2023-03-13T11:05:55;16.40;99.90
2639;DHT22;1329;51.384;7.122;2023-03-13T11:08:38;16.50;99.90
2639;DHT22;1329;51.384;7.122;2023-03-13T11:11:19;16.50;99.90
2639;DHT22;1329;51.384;7.122;2023-03-13T11:13:47;16.50;99.90
2639;DHT22;1329;51.384;7.122;2023-03-13T11:16:21;16.50;99.90
2639;DHT22;1329;51.384;7.122;2023-03-13T11:19:07;16.60;99.90
2639;DHT22;1329;51.384;7.122;2023-03-13T11:21:54;16.60;99.90
2639;DHT22;1329;51.384;7.122;2023-03-13T11:24:41;16.70;99.90
2639;DHT22;1329;51.384;7.122;2023-03-13T11:27:24;16.70;99.90
2639;DHT22;1329;51.384;7.122;2023-03-13T11:30:22;16.80;99.90
2639;DHT22;1329;51.384;7.122;2023-03-13T11:33:04;16.80;99.90
2639;DHT22;1329;51.384;7.122;2023-03-13T11:35:48;16.80;99.90
2639;DHT22;1329;51.384;7.122;2023-03-13T11:38:27;16.80;99.90
2639;DHT22;1329;51.384;7.122;2023-03-13T11:41:14;16.90;99.90
2639;DHT22;1329;51.384;7.122;2023-03-13T11:44:06;16.90;99.90
2639;DHT22;1329;51.384;7.122;2023-03-13T11:46:52;17.00;99.90
2639;DHT22;1329;51.384;7.122;2023-03-13T11:49:44;17.00;99.90
2639;DHT22;1329;51.384;7.122;2023-03-13T11:52:37;17.00;99.90
2639;DHT22;1329;51.384;7.122;2023-03-13T11:58:29;17.10;99.90
2639;DHT22;1329;51.384;7.122;2023-03-13T12:01:05;17.10;99.90
2639;DHT22;1329;51.384;7.122;2023-03-13T12:03:42;17.10;99.90
2639;DHT22;1329;51.384;7.122;2023-03-13T12:06:22;17.20;99.90
2639;DHT22;1329;51.384;7.122;2023-03-13T12:08:57;17.20;99.90
2639;DHT22;1329;51.384;7.122;2023-03-13T12:11:35;17.20;99.90
2639;DHT22;1329;51.384;7.122;2023-03-13T12:14:25;17.30;99.90
2639;DHT22;1329;51.384;7.122;2023-03-13T12:17:09;17.30;99.90
2639;DHT22;1329;51.384;7.122;2023-03-13T12:19:48;17.40;99.90
2639;DHT22;1329;51.384;7.122;2023-03-13T12:22:21;17.40;99.90
2639;DHT22;1329;51.384;7.122;2023-03-13T12:24:59;17.40;99.90
2639;DHT22;1329;51.384;7.122;2023-03-13T12:27:38;17.40;99.90
2639;DHT22;1329;51.384;7.122;2023-03-13T12:30:19;17.40;99.90
2639;DHT22;1329;51.384;7.122;2023-03-13T12:32:57;17.40;99.90
2639;DHT22;1329;51.384;7.122;2023-03-13T12:35:29;17.40;99.90
2639;DHT22;1329;51.384;7.122;2023-03-13T12:38:03;17.50;99.90
2639;DHT22;1329;51.384;7.122;2023-03-13T12:40:43;17.50;99.90
2639;DHT22;1329;51.384;7.122;2023-03-13T12:43:19;17.50;99.90
2639;DHT22;1329;51.384;7.122;2023-03-13T12:46:24;17.50;99.90
2639;DHT22;1329;51.384;7.122;2023-03-13T12:49:35;17.50;99.90
2639;DHT22;1329;51.384;7.122;2023-03-13T12:58:57;17.60;99.90
2639;DHT22;1329;51.384;7.122;2023-03-13T13:01:46;17.60;99.90
2639;DHT22;1329;51.384;7.122;2023-03-13T13:04:19;17.60;99.90
2639;DHT22;1329;51.384;7.122;2023-03-13T13:06:57;17.60;99.90
2639;DHT22;1329;51.384;7.122;2023-03-13T13:09:30;17.60;99.90
2639;DHT22;1329;51.384;7.122;2023-03-13T13:12:11;17.60;99.90
2639;DHT22;1329;51.384;7.122;2023-03-13T13:15:15;17.70;99.90
2639;DHT22;1329;51.384;7.122;2023-03-13T13:18:09;17.70;99.90
2639;DHT22;1329;51.384;7.122;2023-03-13T13:20:43;17.80;99.90
2639;DHT22;1329;51.384;7.122;2023-03-13T13:23:30;17.80;99.90
2639;DHT22;1329;51.384;7.122;2023-03-13T13:32:47;17.70;99.90
2639;DHT22;1329;51.384;7.122;2023-03-13T13:35:25;17.70;99.90
2639;DHT22;1329;51.384;7.122;2023-03-13T13:44:56;17.70;99.90
2639;DHT22;1329;51.384;7.122;2023-03-13T13:47:31;17.70;99.90
2639;DHT22;1329;51.384;7.122;2023-03-13T13:50:00;17.70;99.90
2639;DHT22;1329;51.384;7.122;2023-03-13T13:52:36;17.70;99.90
2639;DHT22;1329;51.384;7.122;2023-03-13T13:58:21;17.60;99.90
2639;DHT22;1329;51.384;7.122;2023-03-13T14:00:52;17.60;99.90
2639;DHT22;1329;51.384;7.122;2023-03-13T14:03:23;17.60;99.90
2639;DHT22;1329;51.384;7.122;2023-03-13T14:05:55;17.60;99.90
2639;DHT22;1329;51.384;7.122;2023-03-13T14:08:29;17.70;99.90
2639;DHT22;1329;51.384;7.122;2023-03-13T14:11:07;17.70;99.90
2639;DHT22;1329;51.384;7.122;2023-03-13T14:14:08;17.70;99.90
2639;DHT22;1329;51.384;7.122;2023-03-13T14:16:43;17.70;99.90
2639;DHT22;1329;51.384;7.122;2023-03-13T14:19:25;17.70;99.90
2639;DHT22;1329;51.384;7.122;2023-03-13T14:22:03;17.70;99.90
2639;DHT22;1329;51.384;7.122;2023-03-13T14:24:36;17.60;99.90
2639;DHT22;1329;51.384;7.122;2023-03-13T14:27:14;17.60;99.90
2639;DHT22;1329;51.384;7.122;2023-03-13T14:30:00;17.60;99.90
2639;DHT22;1329;51.384;7.122;2023-03-13T14:32:33;17.60;99.90
2639;DHT22;1329;51.384;7.122;2023-03-13T14:35:02;17.50;99.90
2639;DHT22;1329;51.384;7.122;2023-03-13T14:37:35;17.60;99.90
2639;DHT22;1329;51.384;7.122;2023-03-13T14:40:14;17.60;99.90
2639;DHT22;1329;51.384;7.122;2023-03-13T14:42:51;17.60;99.90
2639;DHT22;1329;51.384;7.122;2023-03-13T14:45:26;17.60;99.90
2639;DHT22;1329;51.384;7.122;2023-03-13T14:48:03;17.60;99.90
2639;DHT22;1329;51.384;7.122;2023-03-13T14:50:39;17.70;99.90
2639;DHT22;1329;51.384;7.122;2023-03-13T14:53:15;17.70;99.90
2639;DHT22;1329;51.384;7.122;2023-03-13T14:55:48;17.70;99.90
2639;DHT22;1329;51.384;7.122;2023-03-13T14:58:27;17.70;99.90
2639;DHT22;1329;51.384;7.122;2023-03-13T15:00:56;17.60;99.90
2639;DHT22;1329;51.384;7.122;2023-03-13T15:03:30;17.60;99.90
2639;DHT22;1329;51.384;7.122;2023-03-13T15:06:05;17.60;99.90
2639;DHT22;1329;51.384;7.122;2023-03-13T15:08:41;17.60;99.90
2639;DHT22;1329;51.384;7.122;2023-03-13T15:11:26;17.60;99.90
2639;DHT22;1329;51.384;7.122;2023-03-13T15:13:57;17.60;99.90
2639;DHT22;1329;51.384;7.122;2023-03-13T15:16:27;17.50;99.90
2639;DHT22;1329;51.384;7.122;2023-03-13T15:19:01;17.50;99.90
2639;DHT22;1329;51.384;7.122;2023-03-13T15:21:30;17.50;99.90
2639;DHT22;1329;51.384;7.122;2023-03-13T15:24:10;17.50;99.90
2639;DHT22;1329;51.384;7.122;2023-03-13T15:26:44;17.50;99.90
2639;DHT22;1329;51.384;7.122;2023-03-13T15:29:11;17.50;99.90
2639;DHT22;1329;51.384;7.122;2023-03-13T15:31:47;17.50;99.90
2639;DHT22;1329;51.384;7.122;2023-03-13T15:34:18;17.50;99.90
2639;DHT22;1329;51.384;7.122;2023-03-13T15:36:50;17.40;99.90
2639;DHT22;1329;51.384;7.122;2023-03-13T15:39:18;17.40;99.90
2639;DHT22;1329;51.384;7.122;2023-03-13T15:41:49;17.40;99.90
2639;DHT22;1329;51.384;7.122;2023-03-13T15:44:20;17.50;99.90
2639;DHT22;1329;51.384;7.122;2023-03-13T15:46:49;17.60;99.90
2639;DHT22;1329;51.384;7.122;2023-03-13T15:49:22;17.60;99.90
2639;DHT22;1329;51.384;7.122;2023-03-13T15:51:52;17.60;99.90
2639;DHT22;1329;51.384;7.122;2023-03-13T15:54:21;17.60;99.90
2639;DHT22;1329;51.384;7.122;2023-03-13T15:56:54;17.60;99.90
2639;DHT22;1329;51.384;7.122;2023-03-13T15:59:22;17.60;99.90
2639;DHT22;1329;51.384;7.122;2023-03-13T16:01:50;17.70;99.90
2639;DHT22;1329;51.384;7.122;2023-03-13T16:04:25;17.70;99.90
2639;DHT22;1329;51.384;7.122;2023-03-13T16:07:01;17.80;99.90
2639;DHT22;1329;51.384;7.122;2023-03-13T16:09:28;17.80;99.90
2639;DHT22;1329;51.384;7.122;2023-03-13T16:11:59;17.80;99.90
2639;DHT22;1329;51.384;7.122;2023-03-13T16:14:35;17.90;99.90
2639;DHT22;1329;51.384;7.122;2023-03-13T16:17:12;17.80;99.90
2639;DHT22;1329;51.384;7.122;2023-03-13T16:19:43;17.80;99.90
2639;DHT22;1329;51.384;7.122;2023-03-13T16:22:10;17.80;99.90
2639;DHT22;1329;51.384;7.122;2023-03-13T16:24:38;17.70;99.90
2639;DHT22;1329;51.384;7.122;2023-03-13T16:27:13;17.70;99.90
2639;DHT22;1329;51.384;7.122;2023-03-13T16:29:42;17.70;99.90
2639;DHT22;1329;51.384;7.122;2023-03-13T16:32:15;17.60;99.90
2639;DHT22;1329;51.384;7.122;2023-03-13T16:34:43;17.60;99.90
2639;DHT22;1329;51.384;7.122;2023-03-13T16:37:15;17.60;99.90
2639;DHT22;1329;51.384;7.122;2023-03-13T16:39:44;17.60;99.90
2639;DHT22;1329;51.384;7.122;2023-03-13T16:42:14;17.50;99.90
2639;DHT22;1329;51.384;7.122;2023-03-13T16:44:42;17.40;99.90
2639;DHT22;1329;51.384;7.122;2023-03-13T16:47:19;17.30;99.90
2639;DHT22;1329;51.384;7.122;2023-03-13T16:49:50;17.20;99.90
2639;DHT22;1329;51.384;7.122;2023-03-13T16:52:22;17.10;99.90
2639;DHT22;1329;51.384;7.122;2023-03-13T16:54:51;17.00;99.90
2639;DHT22;1329;51.384;7.122;2023-03-13T16:57:25;16.90;99.90
2639;DHT22;1329;51.384;7.122;2023-03-13T16:59:57;16.80;99.90
2639;DHT22;1329;51.384;7.122;2023-03-13T17:02:32;16.70;99.90
2639;DHT22;1329;51.384;7.122;2023-03-13T17:05:05;16.70;99.90
2639;DHT22;1329;51.384;7.122;2023-03-13T17:07:33;16.60;99.90
2639;DHT22;1329;51.384;7.122;2023-03-13T17:10:02;16.50;99.90